Time;durP1;ratioP1;P1;durP2;ratioP2;P2;SDS_P1;SDS_P2;PMS_P1;PMS_P2;Temp;Humidity;BMP_temperature;BMP_pressure;BME280_temperature;BME280_humidity;BME280_pressure;Samples;Min_cycle;Max_cycle;Signal;HPM_P1;HPM_P2
2023/01/08 00:01:22;;;;;;;2.97;2.73;;;22.00;61.70;;;;;;4930344;29;21010;-74
2023/01/08 00:03:50;;;;;;;4.10;3.67;;;22.00;61.70;;;;;;4928167;29;20502;-74
2023/01/08 00:06:21;;;;;;;3.30;3.10;;;22.00;61.80;;;;;;4933997;29;20486;-75
2023/01/08 00:08:49;;;;;;;3.00;2.80;;;22.00;61.80;;;;;;4932352;29;20504;-74
2023/01/08 00:11:19;;;;;;;3.33;3.03;;;22.10;61.80;;;;;;4929865;29;20531;-74
2023/01/08 00:13:47;;;;;;;2.97;2.77;;;22.10;61.70;;;;;;4932310;29;20861;-74
2023/01/08 00:16:17;;;;;;;3.30;3.10;;;22.10;61.70;;;;;;4929378;29;20452;-74
2023/01/08 00:18:46;;;;;;;3.60;3.30;;;22.10;61.70;;;;;;4931536;29;20948;-74
2023/01/08 00:21:14;;;;;;;3.33;3.10;;;22.10;61.60;;;;;;4929658;29;20460;-74
2023/01/08 00:23:42;;;;;;;4.43;4.03;;;22.10;61.50;;;;;;4928863;29;20456;-74
2023/01/08 00:26:11;;;;;;;3.10;2.90;;;22.10;61.50;;;;;;4928821;29;20506;-76
2023/01/08 00:28:41;;;;;;;2.93;2.73;;;22.20;61.50;;;;;;4928586;29;20449;-74
2023/01/08 00:31:12;;;;;;;3.60;3.40;;;22.20;61.40;;;;;;4932760;29;20467;-74
2023/01/08 00:33:41;;;;;;;3.50;3.30;;;22.20;61.40;;;;;;4926486;29;20465;-74
2023/01/08 00:36:11;;;;;;;3.60;3.30;;;22.20;61.40;;;;;;4931934;29;20463;-74
2023/01/08 00:38:39;;;;;;;3.47;3.23;;;22.10;61.40;;;;;;4929783;29;20484;-74
2023/01/08 00:41:07;;;;;;;3.10;2.90;;;22.20;61.30;;;;;;4936234;29;20582;-74
2023/01/08 00:43:35;;;;;;;3.47;3.17;;;22.10;61.40;;;;;;4932524;29;20447;-75
2023/01/08 00:46:05;;;;;;;3.83;3.43;;;22.10;61.40;;;;;;4936180;29;20575;-75
2023/01/08 00:48:37;;;;;;;3.67;3.40;;;22.10;61.40;;;;;;4933411;29;20800;-74
2023/01/08 00:51:07;;;;;;;4.90;3.00;;;22.10;61.40;;;;;;4937516;29;20448;-74
2023/01/08 00:53:36;;;;;;;3.50;3.30;;;22.10;61.40;;;;;;4937865;29;20781;-73
2023/01/08 00:56:07;;;;;;;3.20;2.90;;;22.10;61.40;;;;;;4938275;29;20430;-74
2023/01/08 00:58:35;;;;;;;3.50;3.20;;;22.10;61.40;;;;;;4937728;29;20500;-74
2023/01/08 01:01:09;;;;;;;2.97;2.77;;;22.10;61.40;;;;;;4935077;29;20460;-73
2023/01/08 01:03:38;;;;;;;3.20;3.00;;;22.00;61.40;;;;;;4927485;29;20538;-73
2023/01/08 01:06:08;;;;;;;3.33;3.13;;;22.00;61.40;;;;;;4937670;29;20970;-74
2023/01/08 01:08:36;;;;;;;3.30;3.10;;;22.00;61.50;;;;;;4938156;29;20939;-76
2023/01/08 01:11:07;;;;;;;3.60;3.30;;;22.00;61.50;;;;;;4937337;29;20557;-74
2023/01/08 01:13:35;;;;;;;3.10;2.90;;;22.00;61.50;;;;;;4937362;29;20475;-73
2023/01/08 01:16:05;;;;;;;3.23;3.00;;;22.00;61.50;;;;;;4937890;29;20894;-74
2023/01/08 01:18:33;;;;;;;3.77;3.47;;;22.00;61.50;;;;;;4937675;29;20531;-74
2023/01/08 01:21:02;;;;;;;3.20;3.00;;;22.00;61.50;;;;;;4937524;29;20431;-74
2023/01/08 01:23:30;;;;;;;3.40;3.17;;;22.00;61.50;;;;;;4937528;29;20447;-74
2023/01/08 01:25:58;;;;;;;3.43;3.23;;;22.00;61.50;;;;;;4932786;29;20587;-74
2023/01/08 01:28:26;;;;;;;3.20;2.90;;;22.00;61.50;;;;;;4918076;29;20448;-74
2023/01/08 01:30:55;;;;;;;3.60;3.33;;;22.00;61.50;;;;;;4932252;29;20490;-73
2023/01/08 01:33:25;;;;;;;4.07;3.77;;;22.00;61.50;;;;;;4921975;29;20506;-74
2023/01/08 01:36:01;;;;;;;3.50;3.30;;;22.00;61.50;;;;;;4923193;29;20553;-74
2023/01/08 01:38:30;;;;;;;2.80;2.60;;;22.00;61.50;;;;;;4936791;29;20930;-75
2023/01/08 01:40:58;;;;;;;3.40;3.20;;;22.00;61.40;;;;;;4935166;29;20487;-74
2023/01/08 01:43:40;;;;;;;3.80;3.53;;;22.00;61.40;;;;;;4929469;29;20504;-74
2023/01/08 01:46:20;;;;;;;3.87;3.60;;;22.00;61.40;;;;;;4933223;29;20478;-76
2023/01/08 01:48:54;;;;;;;3.00;2.80;;;22.00;61.40;;;;;;4932248;29;20555;-75
2023/01/08 01:51:24;;;;;;;3.30;3.10;;;22.00;61.40;;;;;;4933580;29;20460;-78
2023/01/08 01:53:52;;;;;;;3.70;3.47;;;22.00;61.30;;;;;;4936619;29;20969;-74
2023/01/08 01:56:21;;;;;;;3.60;3.30;;;22.00;61.30;;;;;;4936834;29;20467;-74
2023/01/08 01:58:49;;;;;;;3.20;3.00;;;22.00;61.30;;;;;;4936981;29;20482;-74
2023/01/08 02:01:17;;;;;;;3.93;3.63;;;22.00;61.30;;;;;;4936843;29;20873;-74
2023/01/08 02:03:45;;;;;;;4.13;3.83;;;22.00;61.30;;;;;;4936844;29;20847;-73
2023/01/08 02:06:26;;;;;;;3.33;3.07;;;22.00;61.30;;;;;;4923302;29;20481;-74
2023/01/08 02:09:01;;;;;;;3.83;3.53;;;22.00;61.20;;;;;;4917896;29;20515;-74
2023/01/08 02:11:41;;;;;;;3.50;3.20;;;22.00;61.30;;;;;;4928245;29;21018;-74
2023/01/08 02:14:18;;;;;;;4.80;3.07;;;22.00;61.30;;;;;;4921022;29;20533;-75
2023/01/08 02:16:52;;;;;;;3.90;3.60;;;22.00;61.30;;;;;;4917631;29;20499;-74
2023/01/08 02:19:34;;;;;;;3.70;3.40;;;22.00;61.30;;;;;;4917792;29;20428;-74
2023/01/08 02:22:15;;;;;;;3.80;3.50;;;21.90;61.30;;;;;;4917614;29;20494;-74
2023/01/08 02:24:53;;;;;;;4.13;3.63;;;21.90;61.30;;;;;;4920478;29;20539;-74
2023/01/08 02:27:24;;;;;;;3.70;3.40;;;21.90;61.30;;;;;;4936767;29;20961;-74
2023/01/08 02:29:55;;;;;;;3.57;3.27;;;21.90;61.20;;;;;;4936005;29;20440;-74
2023/01/08 02:32:26;;;;;;;3.53;3.27;;;21.90;61.20;;;;;;4935999;29;20538;-74
2023/01/08 02:34:55;;;;;;;3.30;3.10;;;21.90;61.20;;;;;;4932142;29;21002;-75
2023/01/08 02:37:23;;;;;;;3.40;3.20;;;21.90;61.20;;;;;;4926841;29;20737;-74
2023/01/08 02:40:06;;;;;;;5.20;3.33;;;21.90;61.20;;;;;;4934758;29;20481;-74
2023/01/08 02:42:43;;;;;;;2.93;2.73;;;21.90;61.20;;;;;;4935511;29;20471;-76
2023/01/08 02:45:23;;;;;;;3.87;3.57;;;21.90;61.20;;;;;;4936141;29;20536;-74
2023/01/08 02:47:55;;;;;;;3.60;3.30;;;21.90;61.20;;;;;;4917328;29;20800;-74
2023/01/08 02:50:30;;;;;;;3.40;3.20;;;21.90;61.20;;;;;;4927481;29;20452;-74
2023/01/08 02:53:04;;;;;;;3.40;3.20;;;21.90;61.20;;;;;;4935395;29;20856;-74
2023/01/08 02:55:34;;;;;;;3.83;3.53;;;21.90;61.20;;;;;;4934422;29;20509;-74
2023/01/08 02:58:05;;;;;;;3.77;3.47;;;21.90;61.10;;;;;;4935838;29;20861;-74
2023/01/08 03:00:34;;;;;;;4.37;4.00;;;21.90;61.10;;;;;;4936050;29;20543;-74
2023/01/08 03:03:08;;;;;;;3.53;3.23;;;21.90;61.10;;;;;;4935248;29;20804;-75
2023/01/08 03:05:40;;;;;;;3.80;3.50;;;21.90;61.10;;;;;;4931043;29;20479;-74
2023/01/08 03:08:09;;;;;;;2.80;2.60;;;21.90;61.10;;;;;;4935466;29;20450;-74
2023/01/08 03:10:39;;;;;;;3.87;3.60;;;21.90;61.00;;;;;;4934486;29;21094;-74
2023/01/08 03:13:15;;;;;;;3.80;3.50;;;21.90;61.00;;;;;;4935675;29;20562;-74
2023/01/08 03:15:49;;;;;;;3.50;3.30;;;21.90;61.00;;;;;;4935642;29;20493;-74
2023/01/08 03:18:25;;;;;;;3.37;3.13;;;21.90;61.00;;;;;;4934594;29;20494;-74
2023/01/08 03:20:53;;;;;;;3.33;3.07;;;21.90;61.00;;;;;;4935547;29;20419;-74
2023/01/08 03:23:24;;;;;;;3.87;3.57;;;21.90;61.00;;;;;;4934424;29;20459;-74
2023/01/08 03:25:52;;;;;;;3.50;3.20;;;21.90;60.90;;;;;;4935724;29;20853;-77
2023/01/08 03:28:31;;;;;;;3.63;3.43;;;21.90;60.90;;;;;;4929065;29;20487;-74
2023/01/08 03:31:02;;;;;;;3.83;3.57;;;21.90;60.90;;;;;;4934274;29;20518;-74
2023/01/08 03:33:31;;;;;;;3.67;3.37;;;21.90;60.90;;;;;;4936097;29;20455;-74
2023/01/08 03:36:03;;;;;;;3.47;3.27;;;21.90;60.90;;;;;;4933030;29;21019;-74
2023/01/08 03:38:36;;;;;;;4.10;3.80;;;21.90;60.90;;;;;;4935239;29;20836;-74
2023/01/08 03:41:09;;;;;;;4.10;3.70;;;21.90;60.90;;;;;;4932164;29;20491;-74
2023/01/08 03:43:39;;;;;;;3.43;3.23;;;21.90;60.90;;;;;;4935670;29;20563;-74
2023/01/08 03:46:11;;;;;;;4.53;4.13;;;21.90;60.90;;;;;;4933696;29;20483;-73
2023/01/08 03:48:41;;;;;;;3.90;3.60;;;21.90;60.90;;;;;;4935489;29;20459;-75
2023/01/08 03:51:09;;;;;;;3.93;3.63;;;21.90;60.90;;;;;;4935164;29;20861;-74
2023/01/08 03:53:38;;;;;;;3.40;3.10;;;21.90;60.90;;;;;;4935293;29;20441;-74
2023/01/08 03:56:06;;;;;;;3.70;3.40;;;21.90;60.80;;;;;;4935600;29;20554;-74
2023/01/08 03:58:35;;;;;;;4.07;3.77;;;21.90;60.80;;;;;;4935340;29;20986;-75
2023/01/08 04:01:04;;;;;;;3.73;3.53;;;21.90;60.80;;;;;;4932664;29;21310;-75
2023/01/08 04:03:32;;;;;;;4.30;4.00;;;21.90;60.80;;;;;;4935025;29;20535;-74
2023/01/08 04:06:01;;;;;;;4.30;4.00;;;21.80;60.80;;;;;;4927537;29;20881;-74
2023/01/08 04:08:29;;;;;;;4.10;3.80;;;21.90;60.80;;;;;;4916459;29;20472;-74
2023/01/08 04:10:57;;;;;;;4.10;3.80;;;21.90;60.80;;;;;;4919676;29;20501;-74
2023/01/08 04:13:25;;;;;;;3.73;3.43;;;21.80;60.80;;;;;;4935668;29;20476;-76
2023/01/08 04:15:53;;;;;;;3.53;3.33;;;21.80;60.80;;;;;;4938139;29;20550;-75
2023/01/08 04:18:23;;;;;;;3.57;3.27;;;21.80;60.80;;;;;;4938919;29;20432;-75
2023/01/08 04:20:51;;;;;;;4.47;4.10;;;21.80;60.80;;;;;;4937525;29;20539;-76
2023/01/08 04:23:19;;;;;;;3.60;3.40;;;21.80;60.80;;;;;;4938829;29;20463;-74
2023/01/08 04:25:47;;;;;;;3.77;3.47;;;21.80;60.70;;;;;;4939085;29;20437;-75
2023/01/08 04:28:18;;;;;;;3.67;3.37;;;21.80;60.70;;;;;;4938437;29;20466;-74
2023/01/08 04:30:46;;;;;;;4.20;4.00;;;21.80;60.70;;;;;;4938589;29;20459;-75
2023/01/08 04:33:14;;;;;;;4.13;3.83;;;21.80;60.70;;;;;;4938226;29;20456;-75
2023/01/08 04:35:44;;;;;;;3.73;3.53;;;21.80;60.70;;;;;;4936527;29;20789;-73
2023/01/08 04:38:12;;;;;;;3.90;3.60;;;21.80;60.70;;;;;;4938523;29;20471;-73
2023/01/08 04:40:40;;;;;;;3.73;3.53;;;21.80;60.70;;;;;;4938001;29;20638;-74
2023/01/08 04:43:08;;;;;;;3.60;3.30;;;21.80;60.70;;;;;;4928475;29;20596;-73
2023/01/08 04:45:36;;;;;;;3.50;3.30;;;21.80;60.60;;;;;;4932649;29;20538;-74
2023/01/08 04:48:05;;;;;;;3.63;3.43;;;21.80;60.70;;;;;;4937773;29;20622;-73
2023/01/08 04:50:33;;;;;;;4.23;3.93;;;21.80;60.70;;;;;;4937799;29;20514;-74
2023/01/08 04:53:02;;;;;;;3.70;3.50;;;21.80;60.60;;;;;;4938142;29;20479;-74
2023/01/08 04:55:31;;;;;;;4.40;4.10;;;21.80;60.60;;;;;;4920675;29;20488;-74
2023/01/08 04:57:59;;;;;;;3.90;3.60;;;21.80;60.60;;;;;;4929420;29;20454;-74
2023/01/08 05:00:27;;;;;;;4.40;4.10;;;21.80;60.60;;;;;;4938183;29;20438;-74
2023/01/08 05:02:55;;;;;;;4.00;3.70;;;21.80;60.60;;;;;;4938062;29;20427;-74
2023/01/08 05:05:23;;;;;;;4.50;4.20;;;21.80;60.60;;;;;;4935053;29;20943;-74
2023/01/08 05:07:52;;;;;;;4.37;4.07;;;21.80;60.60;;;;;;4935288;29;20478;-74
2023/01/08 05:10:21;;;;;;;3.90;3.70;;;21.80;60.60;;;;;;4936836;29;21021;-74
2023/01/08 05:12:49;;;;;;;3.70;3.50;;;21.80;60.60;;;;;;4937847;29;20911;-74
2023/01/08 05:15:17;;;;;;;4.33;4.00;;;21.80;60.60;;;;;;4937566;29;20446;-74
2023/01/08 05:17:46;;;;;;;4.80;4.40;;;21.80;60.50;;;;;;4937837;29;20455;-74
2023/01/08 05:20:14;;;;;;;4.17;3.80;;;21.80;60.50;;;;;;4937305;29;20531;-74
2023/01/08 05:22:42;;;;;;;4.27;3.87;;;21.80;60.50;;;;;;4937610;29;20462;-74
2023/01/08 05:25:10;;;;;;;3.73;3.50;;;21.80;60.50;;;;;;4937311;29;20451;-74
2023/01/08 05:27:40;;;;;;;4.17;3.90;;;21.80;60.50;;;;;;4935895;29;20566;-74
2023/01/08 05:30:09;;;;;;;4.10;3.80;;;21.80;60.50;;;;;;4933488;29;20546;-75
2023/01/08 05:32:40;;;;;;;4.30;4.00;;;21.80;60.50;;;;;;4937062;29;20490;-74
2023/01/08 05:35:09;;;;;;;4.53;4.13;;;21.80;60.50;;;;;;4931790;29;20531;-74
2023/01/08 05:37:38;;;;;;;4.30;4.00;;;21.80;60.50;;;;;;4917367;29;20992;-74
2023/01/08 05:40:07;;;;;;;3.93;3.63;;;21.80;60.50;;;;;;4918453;29;20460;-74
2023/01/08 05:42:36;;;;;;;4.13;3.83;;;21.80;60.50;;;;;;4937352;29;20539;-74
2023/01/08 05:45:07;;;;;;;3.93;3.63;;;21.80;60.50;;;;;;4936964;29;20538;-74
2023/01/08 05:47:36;;;;;;;4.23;3.90;;;21.80;60.50;;;;;;4936735;29;20991;-74
2023/01/08 05:50:04;;;;;;;3.70;3.40;;;21.80;60.50;;;;;;4937695;29;20442;-74
2023/01/08 05:52:32;;;;;;;3.83;3.53;;;21.80;60.50;;;;;;4927729;29;20539;-75
2023/01/08 05:55:01;;;;;;;3.90;3.60;;;21.80;60.40;;;;;;4934412;29;20459;-75
2023/01/08 05:57:29;;;;;;;3.70;3.43;;;21.80;60.40;;;;;;4918538;29;20441;-74
2023/01/08 05:59:57;;;;;;;4.00;3.70;;;21.80;60.40;;;;;;4931636;29;20875;-74
2023/01/08 06:02:26;;;;;;;4.13;3.83;;;21.80;60.40;;;;;;4924596;29;20547;-73
2023/01/08 06:04:55;;;;;;;3.73;3.50;;;21.80;60.40;;;;;;4919368;29;20474;-74
2023/01/08 06:07:23;;;;;;;4.40;4.00;;;21.80;60.40;;;;;;4925900;29;20525;-74
2023/01/08 06:09:51;;;;;;;4.07;3.77;;;21.80;60.40;;;;;;4922378;29;20491;-75
2023/01/08 06:12:19;;;;;;;4.63;4.30;;;21.80;60.40;;;;;;4936948;29;20424;-75
2023/01/08 06:14:47;;;;;;;4.37;4.10;;;21.80;60.40;;;;;;4936215;29;20475;-74
2023/01/08 06:17:16;;;;;;;4.20;3.90;;;21.80;60.40;;;;;;4927172;29;20522;-74
2023/01/08 06:19:47;;;;;;;4.07;3.77;;;21.80;60.40;;;;;;4929990;29;20492;-74
2023/01/08 06:22:15;;;;;;;3.60;3.40;;;21.80;60.40;;;;;;4936927;29;20934;-74
2023/01/08 06:24:43;;;;;;;4.03;3.73;;;21.80;60.40;;;;;;4936421;29;20450;-73
2023/01/08 06:27:14;;;;;;;4.40;4.10;;;21.70;60.40;;;;;;4920045;29;20551;-74
2023/01/08 06:29:42;;;;;;;4.07;3.77;;;21.70;60.40;;;;;;4917249;29;20531;-74
2023/01/08 06:32:10;;;;;;;3.50;3.30;;;21.70;60.40;;;;;;4917531;29;20487;-77
2023/01/08 06:34:38;;;;;;;4.50;4.20;;;21.70;60.40;;;;;;4917720;29;20432;-74
2023/01/08 06:37:08;;;;;;;3.50;3.30;;;21.70;60.40;;;;;;4917143;29;20482;-74
2023/01/08 06:39:36;;;;;;;4.20;3.90;;;21.70;60.40;;;;;;4917399;29;20781;-74
2023/01/08 06:42:04;;;;;;;4.00;3.70;;;21.70;60.50;;;;;;4930956;29;20470;-74
2023/01/08 06:44:32;;;;;;;3.73;3.50;;;21.70;60.50;;;;;;4935904;29;20435;-74
2023/01/08 06:47:01;;;;;;;3.87;3.57;;;21.70;60.60;;;;;;4936594;29;20535;-74
2023/01/08 06:49:29;;;;;;;4.40;4.00;;;21.70;60.60;;;;;;4933628;29;20479;-75
2023/01/08 06:51:57;;;;;;;4.23;3.83;;;21.70;60.50;;;;;;4925745;29;20463;-74
2023/01/08 06:54:26;;;;;;;2.93;2.80;;;21.70;60.50;;;;;;4936477;29;21456;-74
2023/01/08 06:56:54;;;;;;;3.67;3.37;;;21.70;60.40;;;;;;4935257;29;20532;-74
2023/01/08 06:59:23;;;;;;;3.70;3.40;;;21.70;60.40;;;;;;4934458;29;20463;-75
2023/01/08 07:01:51;;;;;;;4.13;3.83;;;21.70;60.40;;;;;;4930988;29;20455;-74
2023/01/08 07:04:20;;;;;;;4.07;3.77;;;21.70;60.40;;;;;;4923285;29;20469;-75
2023/01/08 07:06:48;;;;;;;3.97;3.67;;;21.70;60.30;;;;;;4921268;29;20492;-73
2023/01/08 07:09:16;;;;;;;3.90;3.60;;;21.70;60.30;;;;;;4928479;29;20480;-73
2023/01/08 07:11:46;;;;;;;4.30;3.90;;;21.70;60.30;;;;;;4934081;29;20533;-72
2023/01/08 07:14:14;;;;;;;3.80;3.50;;;21.80;60.20;;;;;;4934173;29;20579;-73
2023/01/08 07:16:42;;;;;;;3.83;3.63;;;21.80;60.20;;;;;;4932631;29;20483;-73
2023/01/08 07:19:11;;;;;;;3.23;3.03;;;21.80;60.20;;;;;;4933624;29;20455;-72
2023/01/08 07:21:39;;;;;;;4.40;4.00;;;21.80;60.20;;;;;;4931696;29;20460;-73
2023/01/08 07:24:07;;;;;;;3.60;3.30;;;21.80;60.10;;;;;;4933220;29;20459;-73
2023/01/08 07:26:38;;;;;;;4.17;3.87;;;21.80;60.10;;;;;;4935348;29;20444;-73
2023/01/08 07:29:08;;;;;;;4.07;3.77;;;21.80;60.10;;;;;;4926752;29;20835;-74
2023/01/08 07:31:36;;;;;;;3.27;3.07;;;21.80;60.10;;;;;;4930933;29;20952;-74
2023/01/08 07:34:04;;;;;;;3.80;3.60;;;21.70;60.10;;;;;;4935913;29;20448;-72
2023/01/08 07:36:32;;;;;;;3.73;3.43;;;21.70;60.20;;;;;;4935779;29;20444;-72
2023/01/08 07:39:01;;;;;;;3.50;3.30;;;21.70;60.20;;;;;;4934972;29;20873;-75
2023/01/08 07:41:29;;;;;;;4.70;4.30;;;21.70;60.20;;;;;;4934443;29;20543;-75
2023/01/08 07:43:58;;;;;;;3.33;3.13;;;21.70;60.20;;;;;;4925268;29;20534;-72
2023/01/08 07:46:28;;;;;;;3.63;3.40;;;21.70;60.20;;;;;;4935812;29;20514;-75
2023/01/08 07:48:56;;;;;;;4.40;4.10;;;21.70;60.20;;;;;;4937669;29;20906;-75
2023/01/08 07:51:25;;;;;;;3.70;3.40;;;21.70;60.10;;;;;;4939030;29;20954;-75
2023/01/08 07:53:55;;;;;;;3.60;3.40;;;21.70;60.20;;;;;;4935855;29;20546;-76
2023/01/08 07:56:24;;;;;;;3.63;3.43;;;21.60;60.20;;;;;;4937246;29;20519;-75
2023/01/08 07:58:52;;;;;;;3.40;3.20;;;21.60;60.20;;;;;;4937237;29;20541;-76
2023/01/08 08:01:21;;;;;;;3.63;3.43;;;21.60;60.20;;;;;;4934034;29;20963;-75
2023/01/08 08:03:50;;;;;;;3.50;3.30;;;21.60;60.20;;;;;;4932838;29;20463;-75
2023/01/08 08:06:19;;;;;;;3.70;3.40;;;21.60;60.30;;;;;;4938067;29;20451;-75
2023/01/08 08:08:47;;;;;;;3.33;3.13;;;21.60;60.30;;;;;;4938703;29;20576;-75
2023/01/08 08:11:15;;;;;;;3.73;3.50;;;21.60;60.20;;;;;;4937111;29;20489;-74
2023/01/08 08:13:43;;;;;;;4.70;4.40;;;21.60;60.20;;;;;;4936419;29;20576;-74
2023/01/08 08:16:12;;;;;;;4.80;4.40;;;21.60;59.40;;;;;;4934978;29;20455;-73
2023/01/08 08:18:40;;;;;;;4.57;4.27;;;21.60;59.00;;;;;;4938671;29;20456;-74
2023/01/08 08:21:10;;;;;;;4.27;3.97;;;21.60;58.90;;;;;;4937501;29;20468;-73
2023/01/08 08:23:38;;;;;;;4.27;3.97;;;21.60;58.80;;;;;;4938766;29;20477;-74
2023/01/08 08:26:06;;;;;;;3.97;3.57;;;21.60;58.60;;;;;;4937173;29;20470;-74
2023/01/08 08:28:34;;;;;;;3.83;3.40;;;21.70;59.50;;;;;;4933659;29;20479;-73
2023/01/08 08:31:02;;;;;;;4.00;3.70;;;21.70;59.20;;;;;;4934986;29;20477;-73
2023/01/08 08:33:31;;;;;;;4.10;3.80;;;21.70;59.10;;;;;;4937867;29;20439;-72
2023/01/08 08:35:59;;;;;;;3.70;3.50;;;21.70;59.00;;;;;;4938275;29;20447;-73
2023/01/08 08:42:28;;;;;;;3.97;3.63;;;21.70;59.00;;;;;;4935030;29;20507;-73
2023/01/08 08:44:56;;;;;;;3.47;3.27;;;21.70;59.10;;;;;;4938412;29;20452;-71
2023/01/08 08:47:24;;;;;;;3.90;3.60;;;21.70;59.20;;;;;;4937854;29;20526;-73
2023/01/08 08:49:52;;;;;;;3.27;3.07;;;21.70;59.20;;;;;;4937430;29;20475;-74
2023/01/08 08:52:20;;;;;;;3.43;3.17;;;21.70;59.20;;;;;;4928802;29;20456;-73
2023/01/08 08:54:49;;;;;;;3.50;3.30;;;21.70;59.30;;;;;;4927735;29;20876;-73
2023/01/08 08:57:17;;;;;;;3.50;3.30;;;21.70;59.30;;;;;;4928075;29;21000;-75
2023/01/08 08:59:46;;;;;;;3.53;3.23;;;21.70;59.30;;;;;;4930837;29;20449;-74
2023/01/08 09:02:14;;;;;;;3.10;2.90;;;21.70;59.30;;;;;;4929363;29;20470;-73
2023/01/08 09:04:43;;;;;;;3.53;3.33;;;21.70;59.40;;;;;;4935798;29;20865;-72
2023/01/08 09:07:11;;;;;;;5.10;3.17;;;21.70;59.50;;;;;;4931487;29;20451;-73
2023/01/08 09:09:39;;;;;;;3.47;3.27;;;21.70;59.50;;;;;;4931757;29;20476;-77
2023/01/08 09:12:07;;;;;;;3.13;2.93;;;21.70;59.50;;;;;;4924317;29;20468;-76
2023/01/08 09:14:36;;;;;;;3.23;3.03;;;21.70;59.50;;;;;;4922850;29;20549;-76
2023/01/08 09:17:05;;;;;;;3.30;3.10;;;21.70;59.50;;;;;;4931619;29;20558;-75
2023/01/08 09:19:34;;;;;;;3.73;3.43;;;21.60;59.50;;;;;;4927768;29;20565;-76
2023/01/08 09:22:02;;;;;;;3.50;3.30;;;21.60;59.40;;;;;;4929809;29;20562;-77
2023/01/08 09:24:31;;;;;;;3.20;3.00;;;21.60;59.50;;;;;;4924637;29;20543;-76
2023/01/08 09:27:00;;;;;;;3.83;3.63;;;21.70;59.00;;;;;;4925534;29;20461;-76
2023/01/08 09:29:28;;;;;;;3.43;3.23;;;21.70;58.90;;;;;;4924462;29;20476;-77
2023/01/08 09:31:59;;;;;;;3.70;3.40;;;21.70;59.40;;;;;;4929983;29;20848;-76
2023/01/08 09:34:30;;;;;;;3.93;3.63;;;21.70;59.60;;;;;;4925170;29;20492;-76
2023/01/08 09:36:58;;;;;;;2.87;2.67;;;21.70;59.50;;;;;;4919959;29;20491;-76
2023/01/08 09:39:26;;;;;;;3.00;2.80;;;21.70;59.70;;;;;;4920723;29;20467;-76
2023/01/08 09:41:56;;;;;;;4.50;4.20;;;21.70;59.60;;;;;;4922205;29;20860;-76
2023/01/08 09:44:28;;;;;;;3.63;3.33;;;21.70;59.60;;;;;;4929331;29;20467;-76
2023/01/08 09:46:56;;;;;;;3.03;2.83;;;21.80;59.60;;;;;;4931625;29;20550;-76
2023/01/08 09:49:37;;;;;;;3.40;3.10;;;21.80;59.60;;;;;;4930953;29;20483;-76
2023/01/08 09:52:09;;;;;;;3.67;3.40;;;21.80;59.60;;;;;;4932863;29;20451;-76
2023/01/08 09:54:38;;;;;;;3.20;3.00;;;21.80;59.60;;;;;;4935692;29;20442;-77
2023/01/08 09:57:06;;;;;;;3.20;3.00;;;21.80;59.60;;;;;;4929985;29;21008;-76
2023/01/08 09:59:34;;;;;;;2.80;2.60;;;21.80;59.60;;;;;;4933414;29;20470;-76
2023/01/08 10:02:04;;;;;;;3.63;3.33;;;21.80;59.60;;;;;;4934837;29;20951;-76
2023/01/08 10:04:33;;;;;;;2.70;2.53;;;21.80;59.60;;;;;;4932257;29;20468;-76
2023/01/08 10:07:11;;;;;;;2.97;2.77;;;21.80;59.60;;;;;;4921960;29;20469;-75
2023/01/08 10:09:40;;;;;;;4.00;3.70;;;21.80;59.50;;;;;;4929036;29;20566;-76
2023/01/08 10:12:13;;;;;;;4.17;3.30;;;21.80;59.40;;;;;;4927386;29;20448;-76
2023/01/08 10:14:48;;;;;;;3.50;3.23;;;21.80;59.40;;;;;;4928668;29;20498;-77
2023/01/08 10:17:26;;;;;;;3.30;3.10;;;21.70;59.30;;;;;;4930111;29;20510;-68
2023/01/08 10:19:54;;;;;;;3.60;3.37;;;21.70;59.70;;;;;;4928723;29;20597;-71
2023/01/08 10:22:25;;;;;;;2.17;2.00;;;21.70;59.30;;;;;;4932971;29;20448;-71
2023/01/08 10:25:02;;;;;;;3.20;3.00;;;21.70;59.70;;;;;;4931970;29;20497;-71
2023/01/08 10:27:31;;;;;;;3.20;2.97;;;21.70;59.80;;;;;;4930340;29;20892;-69
2023/01/08 10:30:06;;;;;;;3.53;3.33;;;21.70;60.10;;;;;;4929775;29;20999;-69
2023/01/08 10:32:37;;;;;;;3.23;3.03;;;21.70;60.00;;;;;;4928891;29;20542;-70
2023/01/08 10:35:07;;;;;;;3.53;3.23;;;21.70;59.80;;;;;;4933590;29;20545;-69
2023/01/08 10:37:41;;;;;;;3.33;3.13;;;21.60;59.70;;;;;;4933207;29;20979;-69
2023/01/08 10:40:23;;;;;;;3.30;3.10;;;21.60;59.90;;;;;;4928884;29;20578;-69
2023/01/08 10:42:52;;;;;;;4.20;3.90;;;21.60;59.70;;;;;;4928340;29;20455;-69
2023/01/08 10:45:23;;;;;;;3.90;3.63;;;21.70;59.60;;;;;;4927723;29;20484;-69
2023/01/08 10:47:56;;;;;;;3.60;3.40;;;21.70;59.70;;;;;;4932008;29;20484;-70
2023/01/08 10:50:27;;;;;;;3.83;2.60;;;21.70;59.60;;;;;;4929554;29;20581;-70
2023/01/08 10:52:59;;;;;;;4.40;4.10;;;21.70;59.70;;;;;;4930386;29;20462;-69
2023/01/08 10:55:30;;;;;;;3.50;3.30;;;21.70;59.50;;;;;;4930665;29;20540;-69
2023/01/08 10:58:00;;;;;;;3.63;3.40;;;21.80;59.50;;;;;;4933945;29;20537;-69
2023/01/08 11:00:30;;;;;;;3.10;2.90;;;21.80;59.70;;;;;;4929388;29;20464;-72
2023/01/08 11:03:00;;;;;;;3.20;3.00;;;21.80;59.90;;;;;;4930580;29;20852;-71
2023/01/08 11:05:33;;;;;;;4.80;3.10;;;21.80;59.70;;;;;;4929366;29;20588;-70
2023/01/08 11:08:07;;;;;;;2.87;2.67;;;21.80;59.80;;;;;;4931484;29;20504;-70
2023/01/08 11:10:37;;;;;;;3.23;3.00;;;21.80;59.70;;;;;;4934373;29;20980;-72
2023/01/08 11:13:07;;;;;;;4.50;3.60;;;21.80;59.90;;;;;;4931366;29;20534;-71
2023/01/08 11:15:38;;;;;;;3.53;3.23;;;21.80;59.90;;;;;;4930131;29;20874;-72
2023/01/08 11:18:21;;;;;;;3.07;2.87;;;21.80;60.00;;;;;;4930417;29;20510;-71
2023/01/08 11:20:50;;;;;;;3.90;3.60;;;21.80;59.70;;;;;;4931363;29;20450;-71
2023/01/08 11:23:23;;;;;;;6.87;3.60;;;21.80;60.10;;;;;;4934221;29;20487;-64
2023/01/08 11:25:59;;;;;;;4.50;3.20;;;21.80;60.60;;;;;;4931842;29;20538;-64
2023/01/08 11:28:38;;;;;;;10.87;3.27;;;21.80;60.20;;;;;;4933524;29;20555;-64
2023/01/08 11:31:14;;;;;;;6.07;4.60;;;21.80;60.10;;;;;;4933328;29;20487;-63
2023/01/08 11:33:44;;;;;;;3.53;3.23;;;21.80;60.50;;;;;;4933714;29;20451;-64
2023/01/08 11:36:22;;;;;;;3.40;3.10;;;21.70;60.40;;;;;;4930948;29;20555;-65
2023/01/08 11:38:51;;;;;;;6.03;3.43;;;21.70;60.10;;;;;;4929360;29;20517;-67
2023/01/08 11:41:37;;;;;;;3.50;3.20;;;21.70;60.50;;;;;;4931243;29;20476;-73
2023/01/08 11:44:20;;;;;;;4.07;3.77;;;21.70;60.90;;;;;;4931450;29;20526;-73
2023/01/08 11:46:57;;;;;;;4.40;3.10;;;21.70;61.10;;;;;;4925879;29;20551;-72
2023/01/08 11:49:51;;;;;;;5.20;4.70;;;21.70;61.70;;;;;;4930226;29;20511;-72
2023/01/08 11:52:34;;;;;;;3.47;3.17;;;21.70;61.90;;;;;;4930635;29;21000;-73
2023/01/08 11:55:23;;;;;;;4.73;3.13;;;21.70;61.90;;;;;;4933144;29;20448;-74
2023/01/08 11:58:21;;;;;;;3.20;2.57;;;21.70;61.70;;;;;;4935648;29;20530;-71
2023/01/08 12:01:10;;;;;;;5.03;4.10;;;21.70;61.90;;;;;;4917037;29;20772;-72
2023/01/08 12:03:43;;;;;;;4.13;3.30;;;21.80;62.00;;;;;;4918543;29;20463;-71
2023/01/08 12:06:28;;;;;;;6.33;3.43;;;21.80;62.10;;;;;;4930947;29;20534;-71
2023/01/08 12:09:10;;;;;;;5.30;3.60;;;21.90;62.20;;;;;;4926629;29;20456;-73
2023/01/08 12:11:48;;;;;;;3.77;3.10;;;22.00;62.30;;;;;;4927394;29;20490;-71
2023/01/08 12:14:34;;;;;;;3.63;3.33;;;22.00;62.10;;;;;;4924912;29;20495;-70
2023/01/08 12:17:21;;;;;;;2.77;2.57;;;22.00;62.00;;;;;;4920709;29;20999;-72
2023/01/08 12:20:07;;;;;;;2.93;2.63;;;22.10;61.60;;;;;;4926167;29;20543;-72
2023/01/08 12:22:45;;;;;;;5.40;2.70;;;22.10;61.90;;;;;;4928820;29;20946;-71
2023/01/08 12:25:26;;;;;;;4.60;2.70;;;22.10;62.00;;;;;;4923538;29;21503;-75
2023/01/08 12:28:13;;;;;;;3.13;2.83;;;22.10;61.70;;;;;;4920471;29;20550;-72
2023/01/08 12:31:07;;;;;;;4.00;3.03;;;22.10;61.70;;;;;;4921720;29;20512;-71
2023/01/08 12:33:40;;;;;;;2.67;2.43;;;22.00;62.10;;;;;;4924155;29;20476;-72
2023/01/08 12:36:13;;;;;;;3.10;2.80;;;22.00;62.10;;;;;;4928012;29;20547;-71
2023/01/08 12:38:45;;;;;;;4.13;3.00;;;22.00;62.10;;;;;;4935353;29;20462;-71
2023/01/08 12:41:17;;;;;;;2.87;2.57;;;22.00;62.20;;;;;;4932409;29;20514;-71
2023/01/08 12:43:53;;;;;;;4.20;3.80;;;22.00;62.20;;;;;;4925684;29;20462;-71
2023/01/08 12:46:22;;;;;;;4.73;3.00;;;22.00;62.20;;;;;;4925732;29;20955;-71
2023/01/08 12:48:53;;;;;;;3.20;2.77;;;22.00;62.20;;;;;;4930937;29;20470;-73
2023/01/08 12:51:28;;;;;;;4.10;2.87;;;22.00;62.20;;;;;;4931821;29;20966;-72
2023/01/08 12:54:08;;;;;;;2.90;2.67;;;22.00;62.20;;;;;;4933648;29;20547;-73
2023/01/08 12:56:46;;;;;;;2.77;2.50;;;22.00;62.40;;;;;;4922885;29;20464;-72
2023/01/08 12:59:31;;;;;;;3.30;3.00;;;22.00;62.50;;;;;;4927732;29;21395;-72
2023/01/08 13:02:07;;;;;;;3.97;2.60;;;22.00;62.40;;;;;;4922484;29;20453;-73
2023/01/08 13:04:42;;;;;;;5.60;3.13;;;22.00;62.40;;;;;;4920875;29;20456;-72
2023/01/08 13:07:16;;;;;;;3.07;2.63;;;22.00;62.40;;;;;;4926033;29;20455;-72
2023/01/08 13:09:45;;;;;;;4.17;2.80;;;22.00;62.40;;;;;;4921096;29;20496;-73
2023/01/08 13:12:15;;;;;;;4.70;2.80;;;22.00;62.40;;;;;;4935315;29;20465;-73